sensor_id;sensor_type;location;lat;lon;timestamp;P1;durP1;ratioP1;P2;durP2;ratioP2
30593;SDS011;33199;47.590;8.300;2022-08-16T00:00:26;1.38;;;0.60;;
30593;SDS011;33199;47.590;8.300;2022-08-16T00:02:53;0.60;;;0.60;;
30593;SDS011;33199;47.590;8.300;2022-08-16T00:05:20;0.70;;;0.70;;
30593;SDS011;33199;47.590;8.300;2022-08-16T00:10:14;0.60;;;0.60;;
30593;SDS011;33199;47.590;8.300;2022-08-16T00:12:41;0.60;;;0.60;;
30593;SDS011;33199;47.590;8.300;2022-08-16T00:15:13;0.65;;;0.60;;
30593;SDS011;33199;47.590;8.300;2022-08-16T00:17:48;0.50;;;0.50;;
30593;SDS011;33199;47.590;8.300;2022-08-16T00:20:14;0.70;;;0.70;;
30593;SDS011;33199;47.590;8.300;2022-08-16T00:22:40;0.50;;;0.50;;
30593;SDS011;33199;47.590;8.300;2022-08-16T00:25:08;0.47;;;0.47;;
30593;SDS011;33199;47.590;8.300;2022-08-16T00:27:36;0.63;;;0.63;;
30593;SDS011;33199;47.590;8.300;2022-08-16T00:30:03;0.50;;;0.50;;
30593;SDS011;33199;47.590;8.300;2022-08-16T00:32:30;0.60;;;0.60;;
30593;SDS011;33199;47.590;8.300;2022-08-16T00:34:56;0.50;;;0.50;;
30593;SDS011;33199;47.590;8.300;2022-08-16T00:37:22;0.45;;;0.45;;
30593;SDS011;33199;47.590;8.300;2022-08-16T00:39:49;0.70;;;0.70;;
30593;SDS011;33199;47.590;8.300;2022-08-16T00:42:14;0.47;;;0.47;;
30593;SDS011;33199;47.590;8.300;2022-08-16T00:44:41;0.50;;;0.50;;
30593;SDS011;33199;47.590;8.300;2022-08-16T00:47:13;0.52;;;0.52;;
30593;SDS011;33199;47.590;8.300;2022-08-16T00:49:42;1.13;;;0.60;;
30593;SDS011;33199;47.590;8.300;2022-08-16T00:52:08;0.88;;;0.70;;
30593;SDS011;33199;47.590;8.300;2022-08-16T00:54:33;0.70;;;0.70;;
30593;SDS011;33199;47.590;8.300;2022-08-16T00:57:00;0.60;;;0.60;;
30593;SDS011;33199;47.590;8.300;2022-08-16T00:59:28;0.68;;;0.50;;
30593;SDS011;33199;47.590;8.300;2022-08-16T01:01:57;0.50;;;0.50;;
30593;SDS011;33199;47.590;8.300;2022-08-16T01:04:23;0.55;;;0.55;;
30593;SDS011;33199;47.590;8.300;2022-08-16T01:06:51;0.40;;;0.40;;
30593;SDS011;33199;47.590;8.300;2022-08-16T01:09:17;0.50;;;0.50;;
30593;SDS011;33199;47.590;8.300;2022-08-16T01:11:44;0.85;;;0.50;;
30593;SDS011;33199;47.590;8.300;2022-08-16T01:14:12;0.45;;;0.45;;
30593;SDS011;33199;47.590;8.300;2022-08-16T01:16:45;0.68;;;0.68;;
30593;SDS011;33199;47.590;8.300;2022-08-16T01:19:32;0.63;;;0.63;;
30593;SDS011;33199;47.590;8.300;2022-08-16T01:25:12;0.50;;;0.50;;
30593;SDS011;33199;47.590;8.300;2022-08-16T01:27:44;0.50;;;0.50;;
30593;SDS011;33199;47.590;8.300;2022-08-16T01:30:15;0.52;;;0.52;;
30593;SDS011;33199;47.590;8.300;2022-08-16T01:32:50;0.70;;;0.70;;
30593;SDS011;33199;47.590;8.300;2022-08-16T01:41:04;0.60;;;0.60;;
30593;SDS011;33199;47.590;8.300;2022-08-16T01:43:32;0.70;;;0.70;;
30593;SDS011;33199;47.590;8.300;2022-08-16T01:46:00;0.50;;;0.50;;
30593;SDS011;33199;47.590;8.300;2022-08-16T01:48:29;0.55;;;0.50;;
30593;SDS011;33199;47.590;8.300;2022-08-16T01:50:56;0.40;;;0.40;;
30593;SDS011;33199;47.590;8.300;2022-08-16T01:53:23;0.50;;;0.50;;
30593;SDS011;33199;47.590;8.300;2022-08-16T01:55:50;0.60;;;0.60;;
30593;SDS011;33199;47.590;8.300;2022-08-16T01:58:16;0.57;;;0.57;;
30593;SDS011;33199;47.590;8.300;2022-08-16T02:00:43;0.60;;;0.60;;
30593;SDS011;33199;47.590;8.300;2022-08-16T02:03:09;0.50;;;0.50;;
30593;SDS011;33199;47.590;8.300;2022-08-16T02:05:35;0.70;;;0.70;;
30593;SDS011;33199;47.590;8.300;2022-08-16T02:08:02;0.82;;;0.82;;
30593;SDS011;33199;47.590;8.300;2022-08-16T02:10:28;0.70;;;0.70;;
30593;SDS011;33199;47.590;8.300;2022-08-16T02:12:54;0.50;;;0.50;;
30593;SDS011;33199;47.590;8.300;2022-08-16T02:15:21;1.25;;;0.57;;
30593;SDS011;33199;47.590;8.300;2022-08-16T02:17:48;0.50;;;0.50;;
30593;SDS011;33199;47.590;8.300;2022-08-16T02:20:14;0.52;;;0.52;;
30593;SDS011;33199;47.590;8.300;2022-08-16T02:22:40;0.50;;;0.50;;
30593;SDS011;33199;47.590;8.300;2022-08-16T02:25:09;0.60;;;0.60;;
30593;SDS011;33199;47.590;8.300;2022-08-16T02:27:40;1.00;;;0.70;;
30593;SDS011;33199;47.590;8.300;2022-08-16T02:30:08;0.57;;;0.57;;
30593;SDS011;33199;47.590;8.300;2022-08-16T02:32:40;0.60;;;0.60;;
30593;SDS011;33199;47.590;8.300;2022-08-16T02:35:07;0.70;;;0.70;;
30593;SDS011;33199;47.590;8.300;2022-08-16T02:37:33;0.50;;;0.50;;
30593;SDS011;33199;47.590;8.300;2022-08-16T02:39:59;0.73;;;0.73;;
30593;SDS011;33199;47.590;8.300;2022-08-16T02:42:24;0.60;;;0.60;;
30593;SDS011;33199;47.590;8.300;2022-08-16T02:44:50;0.50;;;0.50;;
30593;SDS011;33199;47.590;8.300;2022-08-16T02:47:15;0.70;;;0.70;;
30593;SDS011;33199;47.590;8.300;2022-08-16T02:49:41;0.50;;;0.50;;
30593;SDS011;33199;47.590;8.300;2022-08-16T02:52:07;0.57;;;0.57;;
30593;SDS011;33199;47.590;8.300;2022-08-16T02:54:34;0.70;;;0.70;;
30593;SDS011;33199;47.590;8.300;2022-08-16T02:57:00;0.60;;;0.60;;
30593;SDS011;33199;47.590;8.300;2022-08-16T02:59:26;0.60;;;0.60;;
30593;SDS011;33199;47.590;8.300;2022-08-16T03:01:51;0.60;;;0.60;;
30593;SDS011;33199;47.590;8.300;2022-08-16T03:04:18;0.93;;;0.77;;
30593;SDS011;33199;47.590;8.300;2022-08-16T03:06:43;0.50;;;0.50;;
30593;SDS011;33199;47.590;8.300;2022-08-16T03:09:09;0.57;;;0.57;;
30593;SDS011;33199;47.590;8.300;2022-08-16T03:11:35;0.60;;;0.60;;
30593;SDS011;33199;47.590;8.300;2022-08-16T03:14:01;0.93;;;0.60;;
30593;SDS011;33199;47.590;8.300;2022-08-16T03:16:26;0.50;;;0.50;;
30593;SDS011;33199;47.590;8.300;2022-08-16T03:18:52;0.65;;;0.50;;
30593;SDS011;33199;47.590;8.300;2022-08-16T03:21:18;0.47;;;0.47;;
30593;SDS011;33199;47.590;8.300;2022-08-16T03:23:44;0.68;;;0.68;;
30593;SDS011;33199;47.590;8.300;2022-08-16T03:26:10;0.50;;;0.50;;
30593;SDS011;33199;47.590;8.300;2022-08-16T03:28:37;0.60;;;0.60;;
30593;SDS011;33199;47.590;8.300;2022-08-16T03:31:03;0.60;;;0.60;;
30593;SDS011;33199;47.590;8.300;2022-08-16T03:33:30;0.80;;;0.80;;
30593;SDS011;33199;47.590;8.300;2022-08-16T03:35:56;0.52;;;0.52;;
30593;SDS011;33199;47.590;8.300;2022-08-16T03:38:24;0.65;;;0.65;;
30593;SDS011;33199;47.590;8.300;2022-08-16T03:40:51;0.50;;;0.50;;
30593;SDS011;33199;47.590;8.300;2022-08-16T03:43:17;0.50;;;0.50;;
30593;SDS011;33199;47.590;8.300;2022-08-16T03:45:42;0.70;;;0.70;;
30593;SDS011;33199;47.590;8.300;2022-08-16T03:48:08;0.50;;;0.50;;
30593;SDS011;33199;47.590;8.300;2022-08-16T03:50:35;0.60;;;0.60;;
30593;SDS011;33199;47.590;8.300;2022-08-16T03:53:01;0.45;;;0.45;;
30593;SDS011;33199;47.590;8.300;2022-08-16T03:55:28;0.68;;;0.68;;
30593;SDS011;33199;47.590;8.300;2022-08-16T03:57:54;0.68;;;0.55;;
30593;SDS011;33199;47.590;8.300;2022-08-16T04:00:21;0.60;;;0.60;;
30593;SDS011;33199;47.590;8.300;2022-08-16T04:02:49;4.88;;;1.75;;
30593;SDS011;33199;47.590;8.300;2022-08-16T04:05:16;6.22;;;0.98;;
30593;SDS011;33199;47.590;8.300;2022-08-16T04:07:42;2.25;;;1.20;;
30593;SDS011;33199;47.590;8.300;2022-08-16T04:10:08;0.82;;;0.80;;
30593;SDS011;33199;47.590;8.300;2022-08-16T04:12:35;1.27;;;1.08;;
30593;SDS011;33199;47.590;8.300;2022-08-16T04:15:01;1.00;;;1.00;;
30593;SDS011;33199;47.590;8.300;2022-08-16T04:17:28;1.75;;;0.82;;
30593;SDS011;33199;47.590;8.300;2022-08-16T04:19:54;1.02;;;0.93;;
30593;SDS011;33199;47.590;8.300;2022-08-16T04:22:21;1.10;;;1.08;;
30593;SDS011;33199;47.590;8.300;2022-08-16T04:24:47;1.00;;;0.90;;
30593;SDS011;33199;47.590;8.300;2022-08-16T04:27:12;0.80;;;0.80;;
30593;SDS011;33199;47.590;8.300;2022-08-16T04:29:38;0.70;;;0.70;;
30593;SDS011;33199;47.590;8.300;2022-08-16T04:32:04;3.92;;;1.10;;
30593;SDS011;33199;47.590;8.300;2022-08-16T04:34:33;2.95;;;0.90;;
30593;SDS011;33199;47.590;8.300;2022-08-16T04:37:01;0.90;;;0.90;;
30593;SDS011;33199;47.590;8.300;2022-08-16T04:39:28;1.30;;;0.85;;
30593;SDS011;33199;47.590;8.300;2022-08-16T04:41:55;1.35;;;0.90;;
30593;SDS011;33199;47.590;8.300;2022-08-16T04:44:21;1.23;;;1.02;;
30593;SDS011;33199;47.590;8.300;2022-08-16T04:46:47;2.72;;;1.02;;
30593;SDS011;33199;47.590;8.300;2022-08-16T04:49:13;2.00;;;1.08;;
30593;SDS011;33199;47.590;8.300;2022-08-16T04:51:39;0.90;;;0.88;;
30593;SDS011;33199;47.590;8.300;2022-08-16T04:54:05;1.00;;;0.90;;
30593;SDS011;33199;47.590;8.300;2022-08-16T04:56:31;1.33;;;1.23;;
30593;SDS011;33199;47.590;8.300;2022-08-16T04:58:57;0.90;;;0.90;;
30593;SDS011;33199;47.590;8.300;2022-08-16T05:01:22;2.28;;;0.93;;
30593;SDS011;33199;47.590;8.300;2022-08-16T05:03:48;1.38;;;0.70;;
30593;SDS011;33199;47.590;8.300;2022-08-16T05:06:14;0.70;;;0.70;;
30593;SDS011;33199;47.590;8.300;2022-08-16T05:08:39;1.67;;;1.10;;
30593;SDS011;33199;47.590;8.300;2022-08-16T05:11:05;2.03;;;0.82;;
30593;SDS011;33199;47.590;8.300;2022-08-16T05:13:33;2.20;;;0.77;;
30593;SDS011;33199;47.590;8.300;2022-08-16T05:16:00;0.85;;;0.85;;
30593;SDS011;33199;47.590;8.300;2022-08-16T05:18:26;0.80;;;0.80;;
30593;SDS011;33199;47.590;8.300;2022-08-16T05:20:52;1.00;;;0.90;;
30593;SDS011;33199;47.590;8.300;2022-08-16T05:23:18;0.80;;;0.80;;
30593;SDS011;33199;47.590;8.300;2022-08-16T05:25:43;1.00;;;0.90;;
30593;SDS011;33199;47.590;8.300;2022-08-16T05:28:09;0.80;;;0.80;;
30593;SDS011;33199;47.590;8.300;2022-08-16T05:30:35;0.90;;;0.90;;
30593;SDS011;33199;47.590;8.300;2022-08-16T05:33:02;2.08;;;0.70;;
30593;SDS011;33199;47.590;8.300;2022-08-16T05:35:28;0.63;;;0.63;;
30593;SDS011;33199;47.590;8.300;2022-08-16T05:37:54;0.80;;;0.80;;
30593;SDS011;33199;47.590;8.300;2022-08-16T05:40:19;0.80;;;0.80;;
30593;SDS011;33199;47.590;8.300;2022-08-16T05:42:45;0.70;;;0.70;;
30593;SDS011;33199;47.590;8.300;2022-08-16T05:45:11;0.60;;;0.60;;
30593;SDS011;33199;47.590;8.300;2022-08-16T05:47:36;1.05;;;0.90;;
30593;SDS011;33199;47.590;8.300;2022-08-16T05:50:03;0.73;;;0.70;;
30593;SDS011;33199;47.590;8.300;2022-08-16T05:52:30;0.70;;;0.70;;
30593;SDS011;33199;47.590;8.300;2022-08-16T05:54:55;0.82;;;0.77;;
30593;SDS011;33199;47.590;8.300;2022-08-16T05:57:21;1.25;;;0.70;;
30593;SDS011;33199;47.590;8.300;2022-08-16T05:59:46;0.80;;;0.80;;
30593;SDS011;33199;47.590;8.300;2022-08-16T06:02:13;1.42;;;0.88;;
30593;SDS011;33199;47.590;8.300;2022-08-16T06:04:38;0.80;;;0.80;;
30593;SDS011;33199;47.590;8.300;2022-08-16T06:07:04;0.70;;;0.70;;
30593;SDS011;33199;47.590;8.300;2022-08-16T06:09:31;0.55;;;0.55;;
30593;SDS011;33199;47.590;8.300;2022-08-16T06:11:57;0.60;;;0.60;;
30593;SDS011;33199;47.590;8.300;2022-08-16T06:14:27;1.10;;;0.60;;
30593;SDS011;33199;47.590;8.300;2022-08-16T06:16:53;1.00;;;1.00;;
30593;SDS011;33199;47.590;8.300;2022-08-16T06:19:19;0.80;;;0.80;;
30593;SDS011;33199;47.590;8.300;2022-08-16T06:21:45;0.45;;;0.45;;
30593;SDS011;33199;47.590;8.300;2022-08-16T06:24:11;0.82;;;0.82;;
30593;SDS011;33199;47.590;8.300;2022-08-16T06:26:37;0.70;;;0.70;;
30593;SDS011;33199;47.590;8.300;2022-08-16T06:29:03;0.82;;;0.82;;
30593;SDS011;33199;47.590;8.300;2022-08-16T06:31:29;0.60;;;0.60;;
30593;SDS011;33199;47.590;8.300;2022-08-16T06:33:55;0.93;;;0.70;;
30593;SDS011;33199;47.590;8.300;2022-08-16T06:36:20;2.28;;;0.77;;
30593;SDS011;33199;47.590;8.300;2022-08-16T06:38:48;0.77;;;0.77;;
30593;SDS011;33199;47.590;8.300;2022-08-16T06:41:14;0.75;;;0.75;;
30593;SDS011;33199;47.590;8.300;2022-08-16T06:43:39;1.55;;;0.73;;
30593;SDS011;33199;47.590;8.300;2022-08-16T06:46:06;0.88;;;0.63;;
30593;SDS011;33199;47.590;8.300;2022-08-16T06:48:44;0.70;;;0.70;;
30593;SDS011;33199;47.590;8.300;2022-08-16T06:51:10;1.10;;;0.70;;
30593;SDS011;33199;47.590;8.300;2022-08-16T06:53:36;0.80;;;0.80;;
30593;SDS011;33199;47.590;8.300;2022-08-16T06:56:02;0.70;;;0.70;;
30593;SDS011;33199;47.590;8.300;2022-08-16T06:58:30;0.73;;;0.60;;
30593;SDS011;33199;47.590;8.300;2022-08-16T07:00:56;0.80;;;0.80;;
30593;SDS011;33199;47.590;8.300;2022-08-16T07:03:22;1.77;;;0.80;;
30593;SDS011;33199;47.590;8.300;2022-08-16T07:05:48;0.60;;;0.60;;
30593;SDS011;33199;47.590;8.300;2022-08-16T07:08:14;0.70;;;0.70;;
30593;SDS011;33199;47.590;8.300;2022-08-16T07:10:40;0.75;;;0.68;;
30593;SDS011;33199;47.590;8.300;2022-08-16T07:13:05;1.30;;;0.73;;
30593;SDS011;33199;47.590;8.300;2022-08-16T07:15:31;1.15;;;0.70;;
30593;SDS011;33199;47.590;8.300;2022-08-16T07:17:57;0.68;;;0.68;;
30593;SDS011;33199;47.590;8.300;2022-08-16T07:20:24;0.85;;;0.85;;
30593;SDS011;33199;47.590;8.300;2022-08-16T07:22:52;0.80;;;0.80;;
30593;SDS011;33199;47.590;8.300;2022-08-16T07:25:19;1.10;;;0.63;;
30593;SDS011;33199;47.590;8.300;2022-08-16T07:27:46;0.60;;;0.60;;
30593;SDS011;33199;47.590;8.300;2022-08-16T07:30:14;1.42;;;0.80;;
30593;SDS011;33199;47.590;8.300;2022-08-16T07:32:41;0.75;;;0.73;;
30593;SDS011;33199;47.590;8.300;2022-08-16T07:35:07;0.65;;;0.65;;
30593;SDS011;33199;47.590;8.300;2022-08-16T07:37:33;0.75;;;0.70;;
30593;SDS011;33199;47.590;8.300;2022-08-16T07:39:59;0.80;;;0.80;;
30593;SDS011;33199;47.590;8.300;2022-08-16T07:42:26;0.60;;;0.60;;
30593;SDS011;33199;47.590;8.300;2022-08-16T07:44:52;0.70;;;0.60;;
30593;SDS011;33199;47.590;8.300;2022-08-16T07:47:18;2.13;;;1.40;;
30593;SDS011;33199;47.590;8.300;2022-08-16T07:49:44;3.38;;;1.40;;
30593;SDS011;33199;47.590;8.300;2022-08-16T07:52:10;3.95;;;1.67;;
30593;SDS011;33199;47.590;8.300;2022-08-16T07:54:35;3.53;;;1.42;;
30593;SDS011;33199;47.590;8.300;2022-08-16T07:57:01;1.80;;;1.70;;
30593;SDS011;33199;47.590;8.300;2022-08-16T07:59:26;1.48;;;1.38;;
30593;SDS011;33199;47.590;8.300;2022-08-16T08:01:53;2.05;;;1.88;;
30593;SDS011;33199;47.590;8.300;2022-08-16T08:04:19;3.50;;;1.70;;
30593;SDS011;33199;47.590;8.300;2022-08-16T08:06:44;2.70;;;1.58;;
30593;SDS011;33199;47.590;8.300;2022-08-16T08:09:10;2.40;;;1.40;;
30593;SDS011;33199;47.590;8.300;2022-08-16T08:11:36;1.65;;;1.55;;
30593;SDS011;33199;47.590;8.300;2022-08-16T08:14:02;1.70;;;1.60;;
30593;SDS011;33199;47.590;8.300;2022-08-16T08:16:28;3.38;;;1.58;;
30593;SDS011;33199;47.590;8.300;2022-08-16T08:18:53;3.28;;;1.50;;
30593;SDS011;33199;47.590;8.300;2022-08-16T08:21:20;5.60;;;1.58;;
30593;SDS011;33199;47.590;8.300;2022-08-16T08:23:48;2.53;;;1.63;;
30593;SDS011;33199;47.590;8.300;2022-08-16T08:26:14;1.30;;;1.17;;
30593;SDS011;33199;47.590;8.300;2022-08-16T08:28:40;3.33;;;1.20;;
30593;SDS011;33199;47.590;8.300;2022-08-16T08:31:06;3.20;;;1.27;;
30593;SDS011;33199;47.590;8.300;2022-08-16T08:33:31;2.30;;;1.38;;
30593;SDS011;33199;47.590;8.300;2022-08-16T08:35:58;2.28;;;1.33;;
30593;SDS011;33199;47.590;8.300;2022-08-16T08:38:25;1.00;;;1.00;;
30593;SDS011;33199;47.590;8.300;2022-08-16T08:43:19;4.03;;;1.23;;
30593;SDS011;33199;47.590;8.300;2022-08-16T08:45:46;1.15;;;1.05;;
30593;SDS011;33199;47.590;8.300;2022-08-16T08:48:12;2.55;;;1.13;;
30593;SDS011;33199;47.590;8.300;2022-08-16T08:50:38;1.35;;;1.20;;
30593;SDS011;33199;47.590;8.300;2022-08-16T08:53:05;1.00;;;1.00;;
30593;SDS011;33199;47.590;8.300;2022-08-16T08:55:30;1.85;;;0.90;;
30593;SDS011;33199;47.590;8.300;2022-08-16T08:57:57;1.45;;;1.20;;
30593;SDS011;33199;47.590;8.300;2022-08-16T09:00:24;1.50;;;1.10;;
30593;SDS011;33199;47.590;8.300;2022-08-16T09:02:51;1.90;;;1.05;;
30593;SDS011;33199;47.590;8.300;2022-08-16T09:05:17;2.13;;;1.20;;
30593;SDS011;33199;47.590;8.300;2022-08-16T09:07:44;1.23;;;1.13;;
30593;SDS011;33199;47.590;8.300;2022-08-16T09:10:10;1.25;;;1.00;;
30593;SDS011;33199;47.590;8.300;2022-08-16T09:12:36;1.25;;;1.15;;
30593;SDS011;33199;47.590;8.300;2022-08-16T09:15:03;1.17;;;1.08;;
30593;SDS011;33199;47.590;8.300;2022-08-16T09:17:29;1.45;;;1.00;;
30593;SDS011;33199;47.590;8.300;2022-08-16T09:19:55;2.67;;;1.15;;
30593;SDS011;33199;47.590;8.300;2022-08-16T09:22:21;6.43;;;1.10;;
30593;SDS011;33199;47.590;8.300;2022-08-16T09:24:48;1.75;;;1.10;;
30593;SDS011;33199;47.590;8.300;2022-08-16T09:27:14;2.00;;;0.93;;
30593;SDS011;33199;47.590;8.300;2022-08-16T09:29:40;1.20;;;1.10;;
30593;SDS011;33199;47.590;8.300;2022-08-16T09:32:06;1.05;;;1.00;;
30593;SDS011;33199;47.590;8.300;2022-08-16T09:34:32;0.90;;;0.90;;
30593;SDS011;33199;47.590;8.300;2022-08-16T09:36:57;1.45;;;0.90;;
30593;SDS011;33199;47.590;8.300;2022-08-16T09:39:23;1.73;;;1.20;;
30593;SDS011;33199;47.590;8.300;2022-08-16T09:41:50;0.85;;;0.85;;
30593;SDS011;33199;47.590;8.300;2022-08-16T09:44:18;1.15;;;1.05;;
30593;SDS011;33199;47.590;8.300;2022-08-16T09:46:48;1.15;;;1.05;;
30593;SDS011;33199;47.590;8.300;2022-08-16T09:49:14;1.70;;;1.05;;
30593;SDS011;33199;47.590;8.300;2022-08-16T09:51:41;1.23;;;0.95;;
30593;SDS011;33199;47.590;8.300;2022-08-16T09:54:06;1.10;;;1.00;;
30593;SDS011;33199;47.590;8.300;2022-08-16T09:56:34;1.67;;;1.10;;
30593;SDS011;33199;47.590;8.300;2022-08-16T09:59:02;0.88;;;0.88;;
30593;SDS011;33199;47.590;8.300;2022-08-16T10:01:29;1.00;;;0.88;;
30593;SDS011;33199;47.590;8.300;2022-08-16T10:03:56;0.93;;;0.93;;
30593;SDS011;33199;47.590;8.300;2022-08-16T10:06:22;1.13;;;0.85;;
30593;SDS011;33199;47.590;8.300;2022-08-16T10:08:49;1.20;;;1.10;;
30593;SDS011;33199;47.590;8.300;2022-08-16T10:11:15;1.35;;;0.93;;
30593;SDS011;33199;47.590;8.300;2022-08-16T10:13:59;0.85;;;0.85;;
30593;SDS011;33199;47.590;8.300;2022-08-16T10:16:25;1.13;;;0.88;;
30593;SDS011;33199;47.590;8.300;2022-08-16T10:18:51;0.70;;;0.70;;
30593;SDS011;33199;47.590;8.300;2022-08-16T10:21:17;1.38;;;1.02;;
30593;SDS011;33199;47.590;8.300;2022-08-16T10:23:43;1.10;;;0.98;;
30593;SDS011;33199;47.590;8.300;2022-08-16T10:26:08;1.05;;;0.75;;
30593;SDS011;33199;47.590;8.300;2022-08-16T10:28:35;1.65;;;1.20;;
30593;SDS011;33199;47.590;8.300;2022-08-16T10:31:02;0.90;;;0.90;;
30593;SDS011;33199;47.590;8.300;2022-08-16T10:33:29;3.43;;;0.77;;
30593;SDS011;33199;47.590;8.300;2022-08-16T10:35:55;0.90;;;0.90;;
30593;SDS011;33199;47.590;8.300;2022-08-16T10:38:21;2.25;;;1.10;;
30593;SDS011;33199;47.590;8.300;2022-08-16T10:40:47;0.90;;;0.90;;
30593;SDS011;33199;47.590;8.300;2022-08-16T10:43:13;3.13;;;0.90;;
30593;SDS011;33199;47.590;8.300;2022-08-16T10:45:39;1.50;;;1.05;;
30593;SDS011;33199;47.590;8.300;2022-08-16T10:48:05;0.85;;;0.85;;
30593;SDS011;33199;47.590;8.300;2022-08-16T10:50:34;0.80;;;0.80;;
30593;SDS011;33199;47.590;8.300;2022-08-16T10:53:00;1.08;;;1.08;;
30593;SDS011;33199;47.590;8.300;2022-08-16T10:55:30;1.02;;;0.90;;
30593;SDS011;33199;47.590;8.300;2022-08-16T10:57:57;5.40;;;1.00;;
30593;SDS011;33199;47.590;8.300;2022-08-16T11:00:26;1.00;;;1.00;;
30593;SDS011;33199;47.590;8.300;2022-08-16T11:02:52;1.45;;;1.13;;
30593;SDS011;33199;47.590;8.300;2022-08-16T11:05:17;0.98;;;0.98;;
30593;SDS011;33199;47.590;8.300;2022-08-16T11:07:45;1.10;;;1.10;;
30593;SDS011;33199;47.590;8.300;2022-08-16T11:10:14;1.10;;;1.00;;
30593;SDS011;33199;47.590;8.300;2022-08-16T11:12:41;1.00;;;0.82;;
30593;SDS011;33199;47.590;8.300;2022-08-16T11:15:07;1.08;;;1.00;;
30593;SDS011;33199;47.590;8.300;2022-08-16T11:17:33;1.77;;;1.20;;
30593;SDS011;33199;47.590;8.300;2022-08-16T11:19:58;1.00;;;1.00;;
30593;SDS011;33199;47.590;8.300;2022-08-16T11:22:25;1.60;;;0.88;;
30593;SDS011;33199;47.590;8.300;2022-08-16T11:24:50;1.83;;;1.45;;
30593;SDS011;33199;47.590;8.300;2022-08-16T11:27:17;1.13;;;1.00;;
30593;SDS011;33199;47.590;8.300;2022-08-16T11:29:44;1.00;;;1.00;;
30593;SDS011;33199;47.590;8.300;2022-08-16T11:32:09;0.98;;;0.98;;
30593;SDS011;33199;47.590;8.300;2022-08-16T11:34:35;1.00;;;1.00;;
30593;SDS011;33199;47.590;8.300;2022-08-16T11:37:01;1.00;;;1.00;;
30593;SDS011;33199;47.590;8.300;2022-08-16T11:39:28;1.38;;;1.10;;
30593;SDS011;33199;47.590;8.300;2022-08-16T11:41:54;0.82;;;0.82;;
30593;SDS011;33199;47.590;8.300;2022-08-16T11:44:20;0.95;;;0.95;;
30593;SDS011;33199;47.590;8.300;2022-08-16T11:46:45;1.50;;;0.93;;
30593;SDS011;33199;47.590;8.300;2022-08-16T11:49:11;0.88;;;0.88;;
30593;SDS011;33199;47.590;8.300;2022-08-16T11:51:37;1.00;;;0.90;;
30593;SDS011;33199;47.590;8.300;2022-08-16T11:54:03;1.27;;;1.17;;
30593;SDS011;33199;47.590;8.300;2022-08-16T11:56:29;1.00;;;1.00;;
30593;SDS011;33199;47.590;8.300;2022-08-16T11:58:55;0.90;;;0.90;;
30593;SDS011;33199;47.590;8.300;2022-08-16T12:01:20;1.02;;;1.00;;
30593;SDS011;33199;47.590;8.300;2022-08-16T12:03:46;1.10;;;1.10;;
30593;SDS011;33199;47.590;8.300;2022-08-16T12:06:13;0.93;;;0.93;;
30593;SDS011;33199;47.590;8.300;2022-08-16T12:08:41;2.22;;;1.23;;
30593;SDS011;33199;47.590;8.300;2022-08-16T12:11:08;1.65;;;1.17;;
30593;SDS011;33199;47.590;8.300;2022-08-16T12:13:35;1.20;;;1.10;;
30593;SDS011;33199;47.590;8.300;2022-08-16T12:16:01;1.20;;;1.10;;
30593;SDS011;33199;47.590;8.300;2022-08-16T12:18:27;1.08;;;1.00;;
30593;SDS011;33199;47.590;8.300;2022-08-16T12:20:53;1.30;;;1.20;;
30593;SDS011;33199;47.590;8.300;2022-08-16T12:23:19;2.45;;;1.10;;
30593;SDS011;33199;47.590;8.300;2022-08-16T12:25:44;1.17;;;1.13;;
30593;SDS011;33199;47.590;8.300;2022-08-16T12:28:10;1.00;;;1.00;;
30593;SDS011;33199;47.590;8.300;2022-08-16T12:30:38;1.13;;;1.10;;
30593;SDS011;33199;47.590;8.300;2022-08-16T12:33:08;1.15;;;1.10;;
30593;SDS011;33199;47.590;8.300;2022-08-16T12:35:37;0.85;;;0.85;;
30593;SDS011;33199;47.590;8.300;2022-08-16T12:38:04;1.30;;;1.20;;
30593;SDS011;33199;47.590;8.300;2022-08-16T12:40:31;1.27;;;1.17;;
30593;SDS011;33199;47.590;8.300;2022-08-16T12:42:59;1.17;;;1.08;;
30593;SDS011;33199;47.590;8.300;2022-08-16T12:45:28;1.40;;;1.30;;
30593;SDS011;33199;47.590;8.300;2022-08-16T12:47:55;1.63;;;1.27;;
30593;SDS011;33199;47.590;8.300;2022-08-16T12:50:39;0.90;;;0.90;;
30593;SDS011;33199;47.590;8.300;2022-08-16T12:53:05;1.30;;;1.20;;
30593;SDS011;33199;47.590;8.300;2022-08-16T12:55:30;1.13;;;1.10;;
30593;SDS011;33199;47.590;8.300;2022-08-16T12:57:57;1.20;;;1.20;;
30593;SDS011;33199;47.590;8.300;2022-08-16T13:00:24;1.38;;;1.08;;
30593;SDS011;33199;47.590;8.300;2022-08-16T13:02:53;1.25;;;1.25;;
30593;SDS011;33199;47.590;8.300;2022-08-16T13:05:20;1.42;;;1.33;;
30593;SDS011;33199;47.590;8.300;2022-08-16T13:07:46;1.20;;;1.20;;
30593;SDS011;33199;47.590;8.300;2022-08-16T13:10:11;1.10;;;0.98;;
30593;SDS011;33199;47.590;8.300;2022-08-16T13:12:40;1.20;;;1.10;;
30593;SDS011;33199;47.590;8.300;2022-08-16T13:17:35;1.15;;;1.05;;
30593;SDS011;33199;47.590;8.300;2022-08-16T13:20:03;1.10;;;1.10;;
30593;SDS011;33199;47.590;8.300;2022-08-16T13:22:31;1.10;;;1.02;;
30593;SDS011;33199;47.590;8.300;2022-08-16T13:24:56;1.45;;;1.10;;
30593;SDS011;33199;47.590;8.300;2022-08-16T13:27:22;1.83;;;1.73;;
30593;SDS011;33199;47.590;8.300;2022-08-16T13:29:47;1.27;;;1.08;;
30593;SDS011;33199;47.590;8.300;2022-08-16T13:32:13;1.10;;;1.10;;
30593;SDS011;33199;47.590;8.300;2022-08-16T13:34:39;1.20;;;1.10;;
30593;SDS011;33199;47.590;8.300;2022-08-16T13:37:04;1.20;;;1.15;;
30593;SDS011;33199;47.590;8.300;2022-08-16T13:39:30;1.30;;;1.20;;
30593;SDS011;33199;47.590;8.300;2022-08-16T13:41:56;1.10;;;1.10;;
30593;SDS011;33199;47.590;8.300;2022-08-16T13:44:26;1.52;;;1.42;;
30593;SDS011;33199;47.590;8.300;2022-08-16T13:46:51;1.33;;;1.10;;
30593;SDS011;33199;47.590;8.300;2022-08-16T13:49:17;1.15;;;1.05;;
30593;SDS011;33199;47.590;8.300;2022-08-16T13:51:43;1.20;;;1.20;;
30593;SDS011;33199;47.590;8.300;2022-08-16T13:54:08;2.03;;;1.00;;
30593;SDS011;33199;47.590;8.300;2022-08-16T13:56:34;1.30;;;1.20;;
30593;SDS011;33199;47.590;8.300;2022-08-16T13:59:01;1.17;;;1.13;;
30593;SDS011;33199;47.590;8.300;2022-08-16T14:01:27;1.33;;;1.23;;
30593;SDS011;33199;47.590;8.300;2022-08-16T14:03:53;1.30;;;1.20;;
30593;SDS011;33199;47.590;8.300;2022-08-16T14:06:18;1.30;;;1.20;;
30593;SDS011;33199;47.590;8.300;2022-08-16T14:08:44;3.72;;;1.17;;
30593;SDS011;33199;47.590;8.300;2022-08-16T14:11:10;1.23;;;1.23;;
30593;SDS011;33199;47.590;8.300;2022-08-16T14:13:38;1.52;;;1.40;;
30593;SDS011;33199;47.590;8.300;2022-08-16T14:16:04;1.17;;;1.08;;
30593;SDS011;33199;47.590;8.300;2022-08-16T14:18:30;1.27;;;1.25;;
30593;SDS011;33199;47.590;8.300;2022-08-16T14:20:56;1.05;;;0.95;;
30593;SDS011;33199;47.590;8.300;2022-08-16T14:23:22;1.60;;;1.15;;
30593;SDS011;33199;47.590;8.300;2022-08-16T14:25:47;1.30;;;1.20;;
30593;SDS011;33199;47.590;8.300;2022-08-16T14:28:13;1.30;;;1.30;;
30593;SDS011;33199;47.590;8.300;2022-08-16T14:30:39;1.10;;;1.10;;
30593;SDS011;33199;47.590;8.300;2022-08-16T14:33:04;1.48;;;1.30;;
30593;SDS011;33199;47.590;8.300;2022-08-16T14:35:30;1.27;;;1.20;;
30593;SDS011;33199;47.590;8.300;2022-08-16T14:37:57;1.52;;;1.20;;
30593;SDS011;33199;47.590;8.300;2022-08-16T14:40:24;1.10;;;1.10;;
30593;SDS011;33199;47.590;8.300;2022-08-16T14:42:50;1.73;;;1.30;;
30593;SDS011;33199;47.590;8.300;2022-08-16T14:45:18;1.25;;;1.23;;
30593;SDS011;33199;47.590;8.300;2022-08-16T14:47:46;1.10;;;1.00;;
30593;SDS011;33199;47.590;8.300;2022-08-16T14:50:14;1.45;;;1.35;;
30593;SDS011;33199;47.590;8.300;2022-08-16T14:52:42;1.35;;;1.25;;
30593;SDS011;33199;47.590;8.300;2022-08-16T14:55:11;1.90;;;1.30;;
30593;SDS011;33199;47.590;8.300;2022-08-16T14:57:38;1.88;;;1.10;;
30593;SDS011;33199;47.590;8.300;2022-08-16T15:00:05;1.20;;;1.20;;